Time;durP1;ratioP1;P1;durP2;ratioP2;P2;SDS_P1;SDS_P2;PMS_P1;PMS_P2;Temp;Humidity;BMP_temperature;BMP_pressure;BME280_temperature;BME280_humidity;BME280_pressure;Samples;Min_cycle;Max_cycle;Signal;HPM_P1;HPM_P2
2021/06/27 00:01:20;;;;;;;6.08;4.90;;;;;;;27.55;55.68;99152.14;1762340;80;21039;-75
2021/06/27 00:03:47;;;;;;;5.20;4.70;;;;;;;27.53;55.64;99161.17;1756723;80;21072;-74
2021/06/27 00:06:14;;;;;;;7.35;4.60;;;;;;;27.51;55.63;99142.93;1759434;80;21017;-74
2021/06/27 00:08:41;;;;;;;5.12;4.53;;;;;;;27.49;55.67;99130.14;1770979;80;21767;-74
2021/06/27 00:11:09;;;;;;;5.55;4.80;;;;;;;27.49;55.71;99126.05;1751545;80;22424;-74
2021/06/27 00:13:36;;;;;;;5.85;5.10;;;;;;;27.46;55.76;99118.45;1758904;80;21006;-73
2021/06/27 00:16:02;;;;;;;8.65;4.80;;;;;;;27.44;55.83;99126.91;1769482;80;21081;-74
2021/06/27 00:18:30;;;;;;;6.08;5.08;;;;;;;27.43;55.90;99134.85;1760532;80;21065;-75
2021/06/27 00:21:00;;;;;;;5.55;5.00;;;;;;;27.42;55.96;99148.78;1758019;80;21105;-75
2021/06/27 00:23:29;;;;;;;4.75;4.30;;;;;;;27.41;55.98;99152.59;1758944;80;21036;-75
2021/06/27 00:25:57;;;;;;;4.92;4.53;;;;;;;27.40;55.98;99150.43;1770385;80;21092;-75
2021/06/27 00:28:23;;;;;;;5.85;4.97;;;;;;;27.39;55.93;99145.27;1767333;80;21070;-75
2021/06/27 00:30:51;;;;;;;6.97;5.03;;;;;;;27.38;55.96;99146.38;1749803;80;21034;-75
2021/06/27 00:33:18;;;;;;;5.72;5.22;;;;;;;27.36;55.95;99139.86;1760496;80;21128;-74
2021/06/27 00:35:45;;;;;;;6.25;5.12;;;;;;;27.35;55.96;99135.52;1778437;80;21001;-75
2021/06/27 00:38:11;;;;;;;5.53;4.40;;;;;;;27.35;55.95;99138.78;1769224;80;21592;-74
2021/06/27 00:40:38;;;;;;;5.53;4.72;;;;;;;27.34;55.93;99142.63;1769070;80;21530;-76
2021/06/27 00:43:04;;;;;;;6.17;5.42;;;;;;;27.33;55.89;99147.80;1762624;80;21080;-76
2021/06/27 00:45:33;;;;;;;5.85;5.25;;;;;;;27.31;55.87;99144.56;1761234;80;21017;-76
2021/06/27 00:47:59;;;;;;;8.28;5.12;;;;;;;27.29;55.87;99139.95;1766101;80;21003;-75
2021/06/27 00:50:30;;;;;;;5.67;4.67;;;;;;;27.27;55.89;99147.06;1761776;80;21085;-75
2021/06/27 00:52:57;;;;;;;5.45;4.95;;;;;;;27.25;55.92;99151.47;1765735;80;21038;-76
2021/06/27 00:55:23;;;;;;;5.78;5.22;;;;;;;27.23;55.96;99148.73;1762031;80;21014;-75
2021/06/27 00:57:51;;;;;;;6.20;5.60;;;;;;;27.22;56.06;99138.38;1771488;80;22357;-75
2021/06/27 01:00:26;;;;;;;5.55;5.00;;;;;;;27.21;56.13;99135.38;1772828;80;21034;-74
2021/06/27 01:02:52;;;;;;;6.40;5.15;;;;;;;27.19;56.24;99134.86;1762060;80;21588;-75
2021/06/27 01:05:23;;;;;;;6.80;5.22;;;;;;;27.18;56.32;99130.53;1765542;80;21006;-75
2021/06/27 01:07:49;;;;;;;6.00;5.12;;;;;;;27.17;56.30;99127.53;1756786;80;21029;-75
2021/06/27 01:10:16;;;;;;;6.30;5.70;;;;;;;27.17;56.25;99130.81;1768469;80;21105;-74
2021/06/27 01:12:43;;;;;;;5.97;5.37;;;;;;;27.16;56.22;99143.64;1765556;80;21642;-76
2021/06/27 01:15:11;;;;;;;6.83;5.50;;;;;;;27.15;56.20;99148.83;1776482;79;21380;-74
2021/06/27 01:17:39;;;;;;;7.58;5.45;;;;;;;27.14;56.19;99159.48;1777161;80;21092;-74
2021/06/27 01:20:12;;;;;;;6.37;5.78;;;;;;;27.13;56.16;99167.95;1758389;80;21047;-74
2021/06/27 01:22:40;;;;;;;5.97;5.47;;;;;;;27.11;56.16;99169.59;1785280;80;21108;-74
2021/06/27 01:25:11;;;;;;;6.45;5.53;;;;;;;27.11;56.11;99174.25;1764846;80;21022;-74
2021/06/27 01:27:37;;;;;;;7.03;5.85;;;;;;;27.09;56.12;99175.89;1774711;80;21064;-76
2021/06/27 01:30:09;;;;;;;6.25;5.37;;;;;;;27.09;56.14;99170.45;1782572;79;21052;-77
2021/06/27 01:32:39;;;;;;;6.45;5.83;;;;;;;27.08;56.15;99174.26;1787860;78;21502;-75
2021/06/27 01:35:13;;;;;;;5.67;5.17;;;;;;;27.08;56.22;99176.98;1789208;78;21154;-75
2021/06/27 01:37:41;;;;;;;6.72;5.80;;;;;;;27.07;56.25;99182.19;1770868;80;20989;-77
2021/06/27 01:40:08;;;;;;;7.15;5.62;;;;;;;27.07;56.25;99180.83;1784427;80;22091;-77
2021/06/27 01:42:37;;;;;;;6.15;5.47;;;;;;;27.05;56.24;99180.31;1792880;78;21588;-77
2021/06/27 01:45:23;;;;;;;6.45;5.33;;;;;;;27.05;56.29;99175.66;1802283;79;21045;-76
2021/06/27 01:47:55;;;;;;;8.25;5.40;;;;;;;27.04;56.35;99163.16;1770429;79;21970;-76
2021/06/27 01:50:21;;;;;;;6.40;5.35;;;;;;;27.02;56.42;99159.07;1806218;78;22124;-75
2021/06/27 01:52:48;;;;;;;5.80;5.30;;;;;;;27.00;56.50;99158.00;1761406;80;21529;-75
2021/06/27 01:55:15;;;;;;;8.75;5.28;;;;;;;26.99;56.52;99159.67;1787389;79;21463;-76
2021/06/27 01:57:42;;;;;;;5.58;5.08;;;;;;;26.98;56.47;99168.38;1770356;79;21081;-75
2021/06/27 02:00:09;;;;;;;8.13;6.12;;;;;;;26.97;56.46;99168.13;1806863;78;21095;-75
2021/06/27 02:02:38;;;;;;;6.20;5.65;;;;;;;26.97;56.43;99176.31;1797335;78;21093;-75
2021/06/27 02:05:06;;;;;;;7.50;5.58;;;;;;;26.96;56.42;99185.58;1775033;80;21084;-76
2021/06/27 02:07:38;;;;;;;7.67;4.72;;;;;;;26.96;56.41;99188.30;1759383;79;21545;-76
2021/06/27 02:10:13;;;;;;;6.70;4.85;;;;;;;26.96;56.42;99188.86;1771171;80;21611;-77
2021/06/27 02:12:39;;;;;;;6.62;5.58;;;;;;;26.94;56.37;99184.25;1788480;79;21089;-76
2021/06/27 02:15:07;;;;;;;5.10;4.60;;;;;;;26.92;56.33;99187.26;1784130;80;21653;-76
2021/06/27 02:17:38;;;;;;;5.47;4.92;;;;;;;26.93;56.27;99189.45;1788664;79;21076;-74
2021/06/27 02:20:08;;;;;;;5.47;4.92;;;;;;;26.91;56.22;99184.29;1758145;80;21016;-73
2021/06/27 02:22:34;;;;;;;4.85;4.45;;;;;;;26.90;56.17;99179.92;1774222;79;21524;-73
2021/06/27 02:25:01;;;;;;;5.25;4.78;;;;;;;26.90;56.17;99176.40;1767778;80;22454;-73
2021/06/27 02:27:27;;;;;;;5.58;4.60;;;;;;;26.90;56.14;99185.94;1774563;80;21062;-73
2021/06/27 02:29:54;;;;;;;5.12;4.00;;;;;;;26.87;56.16;99195.52;1777974;79;21104;-75
2021/06/27 02:32:22;;;;;;;5.08;4.55;;;;;;;26.87;56.14;99200.96;1774673;80;21013;-76
2021/06/27 02:34:49;;;;;;;5.78;4.33;;;;;;;26.85;56.12;99197.16;1771176;80;21053;-77
2021/06/27 02:37:17;;;;;;;6.00;5.20;;;;;;;26.85;56.05;99201.25;1785097;80;21481;-76
2021/06/27 02:39:43;;;;;;;5.55;4.72;;;;;;;26.85;56.00;99197.72;1768181;80;21056;-75
2021/06/27 02:42:09;;;;;;;4.40;4.08;;;;;;;26.84;55.97;99202.33;1774313;78;21048;-75
2021/06/27 02:44:37;;;;;;;5.50;5.00;;;;;;;26.84;55.94;99203.69;1760904;80;21057;-75
2021/06/27 02:47:04;;;;;;;6.78;4.53;;;;;;;26.85;55.94;99211.34;1774042;79;21085;-75
2021/06/27 02:49:32;;;;;;;4.97;4.58;;;;;;;26.85;56.00;99216.79;1788697;78;21551;-75
2021/06/27 02:51:58;;;;;;;5.53;4.70;;;;;;;26.85;55.96;99214.06;1788786;79;21532;-77
2021/06/27 02:54:26;;;;;;;5.30;4.80;;;;;;;26.85;55.95;99214.87;1778210;79;21049;-77
2021/06/27 02:56:52;;;;;;;5.03;4.53;;;;;;;26.86;55.93;99217.03;1790710;79;21088;-75
2021/06/27 02:59:19;;;;;;;4.90;4.17;;;;;;;26.87;55.98;99221.40;1794642;78;21004;-76
2021/06/27 03:01:46;;;;;;;5.30;4.42;;;;;;;26.86;56.05;99221.13;1813382;78;21326;-77
2021/06/27 03:04:12;;;;;;;7.60;5.10;;;;;;;26.87;56.11;99220.03;1773370;78;21041;-77
2021/06/27 03:06:38;;;;;;;5.30;4.80;;;;;;;26.87;56.20;99225.48;1773491;78;21055;-75
2021/06/27 03:09:06;;;;;;;6.80;4.40;;;;;;;26.88;56.18;99228.45;1806914;78;21036;-76
2021/06/27 03:11:32;;;;;;;8.93;4.80;;;;;;;26.88;56.23;99235.27;1794028;78;21100;-77
2021/06/27 03:13:59;;;;;;;4.87;4.28;;;;;;;26.87;56.27;99234.47;1768330;78;21122;-76
2021/06/27 03:16:25;;;;;;;6.65;5.08;;;;;;;26.89;56.26;99228.73;1769107;80;21058;-76
2021/06/27 03:18:51;;;;;;;7.78;4.97;;;;;;;26.88;56.28;99231.98;1761909;80;21037;-74
2021/06/27 03:21:18;;;;;;;8.98;5.35;;;;;;;26.88;56.23;99229.27;1768931;79;21629;-78
2021/06/27 03:23:45;;;;;;;5.30;4.80;;;;;;;26.90;56.17;99237.16;1765872;80;21025;-78
2021/06/27 03:26:13;;;;;;;4.67;4.17;;;;;;;26.90;56.14;99237.16;1773322;80;21252;-77
2021/06/27 03:28:43;;;;;;;5.60;4.58;;;;;;;26.90;56.05;99228.98;1768326;80;21210;-77
2021/06/27 03:31:09;;;;;;;5.62;4.83;;;;;;;26.91;55.99;99231.14;1771741;80;21458;-77
2021/06/27 03:33:35;;;;;;;8.65;4.72;;;;;;;26.90;55.97;99220.80;1756846;79;21012;-78
2021/06/27 03:36:05;;;;;;;4.85;4.00;;;;;;;26.91;55.87;99222.44;1781276;80;21029;-72
2021/06/27 03:38:47;;;;;;;5.90;3.98;;;;;;;26.91;55.83;99225.70;1775417;79;21133;-73
2021/06/27 03:41:06;;;;;;;6.50;4.87;;;;;;;26.92;55.77;99225.97;1765799;80;21031;-73
2021/06/27 03:43:32;;;;;;;7.58;4.70;;;;;;;26.92;55.75;99223.25;1772023;80;21034;-75
2021/06/27 03:45:59;;;;;;;4.95;3.87;;;;;;;26.92;55.67;99225.97;1770887;79;21029;-74
2021/06/27 03:48:25;;;;;;;8.50;4.47;;;;;;;26.93;55.66;99219.44;1768545;80;21501;-75
2021/06/27 03:50:55;;;;;;;4.83;4.25;;;;;;;26.94;55.65;99214.23;1757842;80;21029;-74
2021/06/27 03:53:22;;;;;;;4.97;3.95;;;;;;;26.94;55.63;99214.23;1761086;80;21033;-74
2021/06/27 03:55:48;;;;;;;4.30;3.87;;;;;;;26.95;55.67;99219.39;1762789;80;21065;-74
2021/06/27 03:58:15;;;;;;;6.80;4.53;;;;;;;26.95;55.74;99211.22;1767259;80;21067;-75
2021/06/27 04:00:41;;;;;;;6.05;4.25;;;;;;;26.97;55.73;99217.19;1753292;80;21088;-74
2021/06/27 04:03:08;;;;;;;6.58;4.25;;;;;;;26.98;55.67;99212.55;1758665;80;22077;-75
2021/06/27 04:05:36;;;;;;;3.92;3.62;;;;;;;27.00;55.63;99210.34;1756149;80;21609;-74
2021/06/27 04:08:03;;;;;;;6.20;4.12;;;;;;;27.01;55.65;99206.53;1760958;80;21018;-76
2021/06/27 04:10:30;;;;;;;6.97;4.30;;;;;;;27.02;55.68;99205.41;1754515;80;21163;-74
2021/06/27 04:12:56;;;;;;;5.97;3.95;;;;;;;27.04;55.77;99205.93;1770529;79;21392;-75
2021/06/27 04:15:23;;;;;;;5.60;3.98;;;;;;;27.04;55.76;99206.77;1756681;79;22073;-75
2021/06/27 04:17:50;;;;;;;5.10;3.50;;;;;;;27.05;55.57;99201.55;1771663;79;21255;-74
2021/06/27 04:20:16;;;;;;;4.05;3.65;;;;;;;27.08;55.41;99201.52;1753495;79;21633;-74
2021/06/27 04:22:43;;;;;;;5.00;4.25;;;;;;;27.09;55.24;99194.17;1748241;79;21116;-75
2021/06/27 04:25:10;;;;;;;4.87;4.37;;;;;;;27.12;55.11;99193.58;1758611;79;21111;-74
2021/06/27 04:27:37;;;;;;;5.08;4.00;;;;;;;27.15;54.99;99201.18;1753460;79;21120;-74
2021/06/27 04:30:06;;;;;;;4.67;4.20;;;;;;;27.17;54.96;99206.59;1757967;79;21063;-75
2021/06/27 04:32:32;;;;;;;6.25;3.70;;;;;;;27.18;54.87;99195.16;1759661;79;21087;-75
2021/06/27 04:34:59;;;;;;;5.50;3.92;;;;;;;27.20;54.95;99193.75;1765725;79;21080;-74
2021/06/27 04:37:26;;;;;;;4.05;3.65;;;;;;;27.22;54.90;99196.20;1758248;79;21612;-75
2021/06/27 04:39:52;;;;;;;4.40;3.67;;;;;;;27.23;54.88;99198.61;1755855;79;21981;-74
2021/06/27 04:42:18;;;;;;;4.60;3.90;;;;;;;27.26;54.92;99202.72;1766713;79;21537;-72
2021/06/27 04:44:44;;;;;;;5.87;3.77;;;;;;;27.31;54.89;99206.72;1759043;79;21168;-73
2021/06/27 04:47:12;;;;;;;4.03;3.70;;;;;;;27.37;54.81;99204.75;1752840;79;21280;-73
2021/06/27 04:49:40;;;;;;;3.67;3.37;;;;;;;27.39;54.73;99200.64;1759336;79;21493;-75
2021/06/27 04:52:08;;;;;;;3.92;3.55;;;;;;;27.44;54.59;99206.57;1758289;79;21583;-77
2021/06/27 04:54:36;;;;;;;4.92;3.62;;;;;;;27.45;54.51;99211.73;1755392;79;21492;-76
2021/06/27 04:57:03;;;;;;;4.67;3.62;;;;;;;27.47;54.43;99216.91;1766817;79;21523;-75
2021/06/27 04:59:32;;;;;;;4.00;3.70;;;;;;;27.47;54.44;99212.81;1759197;79;21163;-72
2021/06/27 05:02:00;;;;;;;5.12;3.40;;;;;;;27.49;54.45;99216.59;1759234;79;21100;-72
2021/06/27 05:04:28;;;;;;;5.42;3.77;;;;;;;27.51;54.47;99222.59;1757975;79;21125;-74
2021/06/27 05:06:54;;;;;;;4.83;4.28;;;;;;;27.53;54.53;99221.75;1756466;79;21690;-76
2021/06/27 05:09:21;;;;;;;5.35;4.55;;;;;;;27.52;54.59;99227.73;1762717;79;21012;-74
2021/06/27 05:11:47;;;;;;;5.75;4.00;;;;;;;27.53;54.72;99229.38;1756383;79;21203;-74
2021/06/27 05:14:14;;;;;;;4.15;3.65;;;;;;;27.55;54.81;99246.81;1763811;79;21632;-73
2021/06/27 05:16:41;;;;;;;4.22;3.92;;;;;;;27.55;54.82;99247.63;1769409;79;21150;-73
2021/06/27 05:19:09;;;;;;;5.35;3.80;;;;;;;27.56;54.85;99251.95;1768272;79;21103;-75
2021/06/27 05:21:35;;;;;;;4.55;4.00;;;;;;;27.57;54.80;99259.61;1774548;79;21026;-74
2021/06/27 05:24:01;;;;;;;5.12;3.80;;;;;;;27.57;54.78;99259.05;1768698;80;21053;-73
2021/06/27 05:26:28;;;;;;;5.00;4.50;;;;;;;27.58;54.80;99263.42;1773992;79;21101;-75
2021/06/27 05:28:54;;;;;;;6.08;4.42;;;;;;;27.58;54.78;99270.23;1772347;79;21139;-75
2021/06/27 05:31:20;;;;;;;7.25;4.50;;;;;;;27.58;54.79;99268.87;1770453;79;21037;-75
2021/06/27 05:33:47;;;;;;;6.42;4.42;;;;;;;27.57;54.77;99272.69;1771204;79;21122;-75
2021/06/27 05:36:13;;;;;;;7.78;4.20;;;;;;;27.59;54.65;99271.84;1770361;79;21501;-76
2021/06/27 05:38:40;;;;;;;4.05;3.67;;;;;;;27.59;54.48;99266.39;1771120;79;21114;-76
2021/06/27 05:41:07;;;;;;;7.28;4.50;;;;;;;27.59;54.37;99275.94;1770591;80;21160;-76
2021/06/27 05:43:33;;;;;;;4.78;4.33;;;;;;;27.59;54.26;99277.86;1770799;79;21024;-76
2021/06/27 05:46:01;;;;;;;10.63;3.87;;;;;;;27.60;54.20;99275.38;1762535;79;21037;-75
2021/06/27 05:48:28;;;;;;;5.37;4.37;;;;;;;27.60;54.11;99277.58;1771903;79;21109;-74
2021/06/27 05:50:55;;;;;;;7.83;6.05;;;;;;;27.60;54.07;99270.75;1770708;80;21130;-74
2021/06/27 05:53:21;;;;;;;5.85;5.33;;;;;;;27.61;54.00;99277.02;1768904;79;21073;-73
2021/06/27 05:55:48;;;;;;;5.58;4.75;;;;;;;27.61;53.94;99273.73;1766969;79;21532;-74
2021/06/27 05:58:14;;;;;;;5.33;4.83;;;;;;;27.63;53.85;99274.24;1760430;79;21468;-73
2021/06/27 06:00:40;;;;;;;6.17;4.85;;;;;;;27.66;53.80;99275.56;1765979;79;21549;-74
2021/06/27 06:03:07;;;;;;;6.05;4.78;;;;;;;27.67;53.83;99275.84;1770430;79;21081;-74
2021/06/27 06:05:34;;;;;;;5.30;4.80;;;;;;;27.69;53.89;99275.55;1769411;79;21212;-74
2021/06/27 06:08:02;;;;;;;7.70;5.03;;;;;;;27.69;53.85;99269.53;1765703;79;21061;-75
2021/06/27 06:10:30;;;;;;;6.42;4.95;;;;;;;27.73;53.83;99265.67;1769879;80;21088;-73
2021/06/27 06:12:58;;;;;;;7.35;4.85;;;;;;;27.75;53.75;99259.36;1767436;80;21549;-73
2021/06/27 06:15:25;;;;;;;6.25;4.87;;;;;;;27.77;53.73;99255.23;1775008;79;21084;-73
2021/06/27 06:17:51;;;;;;;5.55;4.67;;;;;;;27.80;53.73;99252.48;1809940;78;21106;-74
2021/06/27 06:20:18;;;;;;;4.87;4.42;;;;;;;27.83;53.73;99254.08;1791248;78;21013;-74
2021/06/27 06:22:44;;;;;;;6.08;4.62;;;;;;;27.88;53.75;99255.94;1784015;78;21088;-75
2021/06/27 06:25:11;;;;;;;5.62;4.55;;;;;;;27.92;53.87;99262.43;1811429;78;21081;-76
2021/06/27 06:27:38;;;;;;;9.98;4.87;;;;;;;27.96;53.80;99258.00;1801870;78;21025;-75
2021/06/27 06:30:08;;;;;;;6.05;5.22;;;;;;;27.99;53.91;99259.31;1794525;79;21053;-75
2021/06/27 06:32:34;;;;;;;7.17;4.70;;;;;;;28.03;53.93;99258.45;1788925;79;21129;-74
2021/06/27 06:35:00;;;;;;;6.20;4.90;;;;;;;28.07;53.95;99251.84;1792628;79;21069;-75
2021/06/27 06:37:27;;;;;;;5.55;4.87;;;;;;;28.11;53.87;99249.34;1790781;79;21067;-64
2021/06/27 06:39:53;;;;;;;6.12;4.45;;;;;;;28.14;54.26;99244.63;1793733;79;21003;-65
2021/06/27 06:42:19;;;;;;;4.90;4.40;;;;;;;28.19;53.97;99250.83;1790764;78;22307;-65
2021/06/27 06:44:46;;;;;;;6.33;4.72;;;;;;;28.22;53.65;99239.33;1793511;79;21565;-65
2021/06/27 06:47:13;;;;;;;4.72;4.25;;;;;;;28.27;53.47;99238.42;1788960;79;21000;-66
2021/06/27 06:49:39;;;;;;;4.95;4.55;;;;;;;28.31;53.70;99233.98;1773038;79;21056;-65
2021/06/27 06:52:06;;;;;;;6.05;4.65;;;;;;;28.35;53.76;99227.38;1771695;79;21104;-65
2021/06/27 06:54:34;;;;;;;4.90;4.50;;;;;;;28.39;54.08;99228.39;1782647;79;21037;-65
2021/06/27 06:57:01;;;;;;;5.37;4.70;;;;;;;28.40;53.97;99228.09;1784053;79;21256;-65
2021/06/27 06:59:27;;;;;;;5.50;4.50;;;;;;;28.43;53.81;99228.05;1784070;79;21017;-65
2021/06/27 07:01:53;;;;;;;4.45;4.08;;;;;;;28.44;53.85;99230.48;1770756;79;21033;-65
2021/06/27 07:04:20;;;;;;;6.42;4.80;;;;;;;28.48;53.31;99238.09;1782500;79;21044;-64
2021/06/27 07:06:46;;;;;;;5.37;4.70;;;;;;;28.49;53.21;99235.60;1796971;78;21135;-65
2021/06/27 07:09:13;;;;;;;6.08;4.60;;;;;;;28.51;53.11;99238.84;1789063;78;21024;-67
2021/06/27 07:11:41;;;;;;;5.92;4.40;;;;;;;28.54;53.17;99234.99;1778058;79;21041;-64
2021/06/27 07:14:07;;;;;;;5.35;4.30;;;;;;;28.56;53.27;99230.60;1759096;79;21044;-64
2021/06/27 07:16:35;;;;;;;5.42;4.87;;;;;;;28.56;53.11;99224.58;1801333;78;21464;-64
2021/06/27 07:19:03;;;;;;;6.55;4.55;;;;;;;28.58;53.24;99215.52;1814600;78;21148;-65
2021/06/27 07:21:31;;;;;;;4.92;4.30;;;;;;;28.60;53.20;99221.49;1803953;78;20999;-64
2021/06/27 07:23:57;;;;;;;5.00;4.53;;;;;;;28.62;53.01;99225.30;1805471;78;21252;-65
2021/06/27 07:26:24;;;;;;;8.65;4.70;;;;;;;28.65;52.69;99224.70;1792823;79;20984;-65
2021/06/27 07:28:51;;;;;;;5.62;4.42;;;;;;;28.67;52.79;99221.68;1775253;78;21008;-63
2021/06/27 07:31:17;;;;;;;8.45;5.35;;;;;;;28.68;52.86;99217.26;1779174;79;21089;-64
2021/06/27 07:33:43;;;;;;;5.62;4.92;;;;;;;28.69;52.79;99209.33;1811611;78;21041;-65
2021/06/27 07:36:10;;;;;;;7.10;4.75;;;;;;;28.72;52.89;99204.61;1796275;79;21151;-65
2021/06/27 07:38:37;;;;;;;9.43;4.97;;;;;;;28.73;53.08;99203.52;1805793;78;21030;-65
2021/06/27 07:41:03;;;;;;;5.35;4.85;;;;;;;28.74;53.09;99194.22;1810885;78;21083;-66
2021/06/27 07:43:31;;;;;;;4.92;4.50;;;;;;;28.76;53.15;99187.89;1818799;78;21203;-64
2021/06/27 07:45:58;;;;;;;6.47;5.10;;;;;;;28.78;53.04;99182.09;1822254;78;21020;-64
2021/06/27 07:48:25;;;;;;;6.00;4.90;;;;;;;28.78;52.96;99184.30;1768161;79;21035;-65
2021/06/27 07:50:51;;;;;;;6.92;5.10;;;;;;;28.78;53.13;99172.00;1798016;78;21030;-67
2021/06/27 07:53:18;;;;;;;7.65;4.80;;;;;;;28.80;53.02;99171.67;1801061;78;21065;-66
2021/06/27 07:55:44;;;;;;;7.62;5.15;;;;;;;28.81;53.11;99177.41;1766933;78;21723;-65
2021/06/27 07:58:10;;;;;;;7.15;5.10;;;;;;;28.81;52.83;99175.47;1772925;79;21009;-66
2021/06/27 08:00:36;;;;;;;6.08;5.47;;;;;;;28.81;53.18;99175.47;1805419;78;21029;-65
2021/06/27 08:03:03;;;;;;;9.43;5.30;;;;;;;28.82;53.00;99178.47;1812157;78;21010;-66
2021/06/27 08:05:31;;;;;;;5.87;5.28;;;;;;;28.85;53.09;99173.52;1775912;78;22079;-66
2021/06/27 08:07:58;;;;;;;7.95;5.28;;;;;;;28.85;53.41;99168.05;1802954;78;21123;-65
2021/06/27 08:10:24;;;;;;;6.08;5.22;;;;;;;28.86;53.22;99161.45;1816626;78;21056;-65
2021/06/27 08:12:51;;;;;;;7.12;5.45;;;;;;;28.87;53.03;99154.31;1793606;78;21041;-67
2021/06/27 08:15:20;;;;;;;8.18;5.87;;;;;;;28.90;52.94;99151.55;1778545;79;21069;-66
2021/06/27 08:17:49;;;;;;;7.83;5.17;;;;;;;28.91;52.83;99144.95;1809169;78;21545;-66
2021/06/27 08:20:17;;;;;;;14.95;5.83;;;;;;;28.92;52.78;99141.13;1784174;79;22048;-67
2021/06/27 08:22:45;;;;;;;7.30;5.15;;;;;;;28.93;52.76;99139.98;1801157;78;21485;-65
2021/06/27 08:25:12;;;;;;;6.78;5.22;;;;;;;28.94;52.63;99141.06;1779525;78;21123;-66
2021/06/27 08:27:39;;;;;;;7.42;5.30;;;;;;;28.97;52.70;99138.27;1794104;79;21562;-64
2021/06/27 08:30:09;;;;;;;7.95;5.15;;;;;;;28.98;52.57;99137.16;1789034;79;21054;-66
2021/06/27 08:32:42;;;;;;;6.67;5.50;;;;;;;28.99;52.46;99133.30;1769905;79;21567;-65
2021/06/27 08:35:07;;;;;;;6.78;5.83;;;;;;;29.01;52.47;99129.70;1803478;78;21588;-65
2021/06/27 08:37:33;;;;;;;5.78;5.28;;;;;;;29.01;52.55;99134.63;1788485;79;21076;-65
2021/06/27 08:39:59;;;;;;;8.40;5.85;;;;;;;29.03;52.49;99126.10;1789526;78;21076;-65
2021/06/27 08:42:26;;;;;;;7.37;5.70;;;;;;;29.06;52.45;99130.17;1780442;78;21095;-65
2021/06/27 08:44:52;;;;;;;6.33;5.72;;;;;;;29.07;52.43;99131.23;1801723;78;21742;-67
2021/06/27 08:47:19;;;;;;;7.33;5.87;;;;;;;29.09;52.25;99122.70;1824470;78;21568;-66
2021/06/27 08:49:48;;;;;;;7.10;5.25;;;;;;;29.10;52.57;99125.70;1812164;78;21480;-67
2021/06/27 08:52:18;;;;;;;6.22;5.37;;;;;;;29.12;52.47;99124.84;1820610;78;21025;-64
2021/06/27 08:54:47;;;;;;;8.60;5.70;;;;;;;29.12;52.33;99118.84;1817589;78;21009;-65
2021/06/27 08:57:14;;;;;;;7.60;5.75;;;;;;;29.15;52.31;99118.80;1815544;78;21090;-67
2021/06/27 08:59:41;;;;;;;8.40;5.47;;;;;;;29.17;52.74;99117.94;1788189;78;21057;-68
2021/06/27 09:02:09;;;;;;;7.95;6.25;;;;;;;29.18;52.61;99116.23;1789437;78;21065;-68
2021/06/27 09:04:43;;;;;;;7.75;6.15;;;;;;;29.19;52.51;99112.40;1808287;78;21550;-74
2021/06/27 09:07:39;;;;;;;12.05;7.10;;;;;;;29.23;52.49;99108.50;1812048;78;21636;-72
2021/06/27 09:10:23;;;;;;;8.28;6.50;;;;;;;29.24;52.25;99106.56;1784698;79;21149;-71
2021/06/27 09:12:58;;;;;;;9.28;6.35;;;;;;;29.26;52.12;99101.02;1780718;79;21013;-71
2021/06/27 09:15:50;;;;;;;7.20;5.95;;;;;;;29.27;52.24;99098.55;1814327;78;21073;-70
2021/06/27 09:18:22;;;;;;;9.18;7.10;;;;;;;29.28;52.05;99104.83;1786235;78;21037;-71
2021/06/27 09:20:52;;;;;;;7.85;6.12;;;;;;;29.29;52.05;99100.98;1808690;78;21033;-71
2021/06/27 09:23:39;;;;;;;11.93;6.97;;;;;;;29.30;51.97;99103.95;1813531;78;21108;-70
2021/06/27 09:26:05;;;;;;;10.70;7.20;;;;;;;29.30;51.90;99099.86;1802984;78;21504;-70
2021/06/27 09:28:47;;;;;;;10.48;6.78;;;;;;;29.32;51.93;99108.56;1809007;78;21496;-69
2021/06/27 09:31:41;;;;;;;8.55;6.50;;;;;;;29.33;51.90;99107.45;1813964;78;21120;-71
2021/06/27 09:34:17;;;;;;;9.45;6.97;;;;;;;29.34;52.29;99109.89;1813686;78;21009;-71
2021/06/27 09:36:49;;;;;;;11.20;7.05;;;;;;;29.34;52.24;99116.73;1810544;78;21128;-71
2021/06/27 09:39:16;;;;;;;9.78;7.15;;;;;;;29.36;52.31;99122.70;1796371;78;21495;-70
2021/06/27 09:41:52;;;;;;;9.43;7.10;;;;;;;29.40;52.23;99124.27;1785306;79;21595;-70
2021/06/27 09:44:20;;;;;;;8.03;6.72;;;;;;;29.42;52.19;99124.77;1775597;80;21076;-70
2021/06/27 09:46:53;;;;;;;11.05;6.33;;;;;;;29.46;52.08;99131.77;1809366;78;21027;-72
2021/06/27 09:49:29;;;;;;;11.40;7.22;;;;;;;29.49;51.88;99140.17;1796907;78;21807;-71
2021/06/27 09:52:02;;;;;;;11.00;7.28;;;;;;;29.50;51.70;99147.28;1782978;78;21085;-70
2021/06/27 09:54:27;;;;;;;10.35;7.33;;;;;;;29.54;51.58;99150.22;1782025;79;21026;-70
2021/06/27 09:56:55;;;;;;;7.92;7.12;;;;;;;29.55;51.46;99154.02;1775854;79;21041;-69
2021/06/27 09:59:33;;;;;;;7.50;6.70;;;;;;;29.59;51.34;99158.29;1795124;79;21092;-70
2021/06/27 10:01:59;;;;;;;9.70;7.67;;;;;;;29.63;51.29;99158.48;1794059;79;21150;-71
2021/06/27 10:04:31;;;;;;;9.13;7.53;;;;;;;29.66;51.24;99163.35;1796277;79;22065;-71
2021/06/27 10:07:06;;;;;;;9.43;7.65;;;;;;;29.69;51.22;99171.76;1790994;79;21048;-70
2021/06/27 10:09:41;;;;;;;10.03;7.53;;;;;;;29.72;51.32;99168.95;1793367;79;21073;-70
2021/06/27 10:12:13;;;;;;;9.68;7.28;;;;;;;29.75;51.38;99172.48;1794325;79;22181;-70
2021/06/27 10:14:53;;;;;;;10.37;8.37;;;;;;;29.79;51.55;99166.63;1800471;79;21146;-71
2021/06/27 10:17:23;;;;;;;10.55;7.78;;;;;;;29.82;51.80;99170.11;1786870;79;21065;-73
2021/06/27 10:19:51;;;;;;;6.72;5.97;;;;;;;29.85;51.91;99183.19;1780667;79;21068;-73
2021/06/27 10:22:20;;;;;;;7.97;6.97;;;;;;;29.89;51.70;99175.97;1780327;79;21013;-72
2021/06/27 10:24:47;;;;;;;7.92;7.17;;;;;;;29.95;51.60;99179.39;1779782;79;21045;-71
2021/06/27 10:27:14;;;;;;;8.08;6.90;;;;;;;30.04;51.48;99180.81;1781595;79;21667;-74
2021/06/27 10:31:25;;;;;;;8.00;6.80;;;;;;;30.22;51.19;99179.82;1878030;75;22599;-74
2021/06/27 10:33:52;;;;;;;7.05;6.28;;;;;;;30.25;51.17;99185.23;1853508;77;21024;-74
2021/06/27 10:36:38;;;;;;;7.65;6.50;;;;;;;30.37;51.05;99184.14;1851183;77;21130;-72
2021/06/27 10:39:13;;;;;;;6.42;5.78;;;;;;;30.47;50.76;99189.35;1773151;80;20989;-72
2021/06/27 10:41:56;;;;;;;6.78;6.17;;;;;;;30.57;50.50;99189.64;1818002;78;21040;-74
2021/06/27 10:44:24;;;;;;;8.28;6.10;;;;;;;30.66;50.25;99191.08;1810188;78;21014;-73
2021/06/27 10:46:58;;;;;;;6.58;5.87;;;;;;;30.75;50.12;99183.13;1784851;78;21523;-78
2021/06/27 10:49:36;;;;;;;6.65;5.80;;;;;;;30.83;50.02;99187.03;1801600;78;21761;-76
2021/06/27 10:52:06;;;;;;;8.83;5.97;;;;;;;30.92;50.08;99187.09;1786863;80;20989;-78
2021/06/27 10:54:34;;;;;;;7.22;5.50;;;;;;;30.99;49.97;99192.92;1780058;78;21691;-77
2021/06/27 10:57:16;;;;;;;7.40;5.83;;;;;;;31.06;49.87;99180.11;1780002;79;21053;-75
2021/06/27 10:59:49;;;;;;;6.53;5.50;;;;;;;31.12;49.68;99185.14;1794760;79;21043;-76
2021/06/27 11:02:34;;;;;;;6.22;5.72;;;;;;;31.19;49.16;99187.41;1780710;79;21112;-78
2021/06/27 11:05:36;;;;;;;5.87;5.37;;;;;;;31.25;49.12;99185.33;1769322;79;21001;-77
2021/06/27 11:08:04;;;;;;;6.37;5.78;;;;;;;31.32;49.07;99191.96;1790040;80;21077;-78
2021/06/27 11:10:34;;;;;;;6.25;5.65;;;;;;;31.37;48.83;99191.02;1814276;78;21092;-77
2021/06/27 11:13:08;;;;;;;5.22;4.83;;;;;;;31.40;49.30;99191.73;1808622;78;21123;-77
2021/06/27 11:15:36;;;;;;;5.80;5.05;;;;;;;31.44;49.36;99205.63;1813848;78;21080;-76
2021/06/27 11:18:06;;;;;;;6.35;5.22;;;;;;;31.45;49.28;99204.52;1785875;79;21013;-77
2021/06/27 11:20:56;;;;;;;5.50;5.10;;;;;;;31.45;49.20;99206.69;1783932;79;21029;-74
2021/06/27 11:23:53;;;;;;;5.53;5.03;;;;;;;31.45;49.23;99200.40;1789027;79;21017;-78
2021/06/27 11:26:54;;;;;;;5.53;5.00;;;;;;;31.43;49.35;99196.59;1787532;79;21004;-77
2021/06/27 11:29:26;;;;;;;5.87;5.33;;;;;;;31.42;49.20;99199.66;1793154;79;21196;-74
2021/06/27 11:32:11;;;;;;;5.62;5.10;;;;;;;31.39;49.21;99201.66;1770109;80;26952;-75
2021/06/27 11:34:52;;;;;;;6.10;4.83;;;;;;;31.38;49.12;99200.05;1776783;80;21522;-76
2021/06/27 11:37:25;;;;;;;5.83;5.33;;;;;;;31.38;49.16;99204.97;1776558;80;21033;-76
2021/06/27 11:40:01;;;;;;;5.87;5.28;;;;;;;31.36;48.87;99194.31;1769558;80;21003;-76
2021/06/27 11:42:38;;;;;;;5.35;4.85;;;;;;;31.38;48.75;99197.31;1762684;80;21070;-78
2021/06/27 11:45:17;;;;;;;5.78;4.87;;;;;;;31.38;48.66;99201.42;1770247;79;21002;-75